sensor_id;sensor_type;location;lat;lon;timestamp;P1;durP1;ratioP1;P2;durP2;ratioP2
39294;SDS011;52361;52.100;5.248;2023-11-25T01:45:11;1.11;;;1.0;;
39294;SDS011;52361;52.100;5.248;2023-11-25T01:46:47;0.9;;;0.9;;
39294;SDS011;52361;52.100;5.248;2023-11-25T01:48:24;3.6;;;1.2;;
39294;SDS011;52361;52.100;5.248;2023-11-25T01:53:17;1.2;;;1.11;;
39294;SDS011;52361;52.100;5.248;2023-11-25T01:59:46;2.21;;;1.3;;
39294;SDS011;52361;52.100;5.248;2023-11-25T02:06:14;4.2;;;1.3;;
39294;SDS011;52361;52.100;5.248;2023-11-25T02:09:26;3.8;;;1.4;;
39294;SDS011;52361;52.100;5.248;2023-11-25T02:15:51;2.31;;;1.6;;
39294;SDS011;52361;52.100;5.248;2023-11-25T02:19:03;2.8;;;1.11;;
39294;SDS011;52361;52.100;5.248;2023-11-25T02:20:39;4.61;;;1.11;;
39294;SDS011;52361;52.100;5.248;2023-11-25T02:22:15;2.6;;;1.8;;
39294;SDS011;52361;52.100;5.248;2023-11-25T02:27:04;11.2;;;2.6;;
39294;SDS011;52361;52.100;5.248;2023-11-25T02:28:40;2.5;;;2.31;;
39294;SDS011;52361;52.100;5.248;2023-11-25T02:33:31;4.2;;;1.11;;
39294;SDS011;52361;52.100;5.248;2023-11-25T02:36:44;1.5;;;1.11;;
39294;SDS011;52361;52.100;5.248;2023-11-25T02:39:56;3.3;;;2.0;;
39294;SDS011;52361;52.100;5.248;2023-11-25T02:41:33;1.9;;;1.0;;
39294;SDS011;52361;52.100;5.248;2023-11-25T02:47:58;6.3;;;2.1;;
39294;SDS011;52361;52.100;5.248;2023-11-25T02:49:34;4.3;;;2.4;;
39294;SDS011;52361;52.100;5.248;2023-11-25T02:51:10;3.7;;;2.5;;
39294;SDS011;52361;52.100;5.248;2023-11-25T02:54:22;3.3;;;1.3;;
39294;SDS011;52361;52.100;5.248;2023-11-25T02:55:58;7.2;;;2.4;;
39294;SDS011;52361;52.100;5.248;2023-11-25T03:00:46;6.8;;;1.5;;
39294;SDS011;52361;52.100;5.248;2023-11-25T03:03:59;1.5;;;0.8;;
39294;SDS011;52361;52.100;5.248;2023-11-25T03:07:12;5.11;;;1.4;;
39294;SDS011;52361;52.100;5.248;2023-11-25T03:08:48;1.11;;;1.0;;
39294;SDS011;52361;52.100;5.248;2023-11-25T03:10:24;1.3;;;0.9;;
39294;SDS011;52361;52.100;5.248;2023-11-25T03:12:00;5.4;;;1.6;;
39294;SDS011;52361;52.100;5.248;2023-11-25T03:16:51;3.4;;;1.2;;
39294;SDS011;52361;52.100;5.248;2023-11-25T03:18:27;3.5;;;1.5;;
39294;SDS011;52361;52.100;5.248;2023-11-25T03:23:17;5.9;;;1.0;;
39294;SDS011;52361;52.100;5.248;2023-11-25T03:24:53;4.5;;;1.0;;
39294;SDS011;52361;52.100;5.248;2023-11-25T03:28:05;1.11;;;1.11;;
39294;SDS011;52361;52.100;5.248;2023-11-25T03:29:41;2.8;;;1.11;;
39294;SDS011;52361;52.100;5.248;2023-11-25T03:32:53;1.9;;;0.8;;
39294;SDS011;52361;52.100;5.248;2023-11-25T03:39:19;4.8;;;1.2;;
39294;SDS011;52361;52.100;5.248;2023-11-25T03:44:08;2.6;;;1.0;;
39294;SDS011;52361;52.100;5.248;2023-11-25T03:45:44;1.7;;;0.8;;
39294;SDS011;52361;52.100;5.248;2023-11-25T03:48:56;1.5;;;1.4;;
39294;SDS011;52361;52.100;5.248;2023-11-25T04:00:09;3.9;;;1.3;;
39294;SDS011;52361;52.100;5.248;2023-11-25T04:04:58;9.1;;;1.5;;
39294;SDS011;52361;52.100;5.248;2023-11-25T04:06:34;6.7;;;2.0;;
39294;SDS011;52361;52.100;5.248;2023-11-25T04:19:24;5.2;;;1.3;;
39294;SDS011;52361;52.100;5.248;2023-11-25T04:21:00;1.2;;;1.11;;
39294;SDS011;52361;52.100;5.248;2023-11-25T04:24:12;1.11;;;0.9;;
39294;SDS011;52361;52.100;5.248;2023-11-25T04:25:48;1.0;;;0.7;;
39294;SDS011;52361;52.100;5.248;2023-11-25T04:27:24;12.9;;;1.3;;
39294;SDS011;52361;52.100;5.248;2023-11-25T04:30:37;4.0;;;1.4;;
39294;SDS011;52361;52.100;5.248;2023-11-25T04:33:50;3.7;;;1.0;;
39294;SDS011;52361;52.100;5.248;2023-11-25T04:37:01;0.6;;;0.6;;
39294;SDS011;52361;52.100;5.248;2023-11-25T04:38:38;5.5;;;0.8;;
39294;SDS011;52361;52.100;5.248;2023-11-25T04:40:14;0.6;;;0.6;;
39294;SDS011;52361;52.100;5.248;2023-11-25T04:45:02;4.0;;;1.0;;
39294;SDS011;52361;52.100;5.248;2023-11-25T04:46:39;1.6;;;1.2;;
39294;SDS011;52361;52.100;5.248;2023-11-25T04:48:15;0.6;;;0.6;;
39294;SDS011;52361;52.100;5.248;2023-11-25T04:53:03;4.5;;;0.6;;
39294;SDS011;52361;52.100;5.248;2023-11-25T04:54:40;0.5;;;0.5;;
39294;SDS011;52361;52.100;5.248;2023-11-25T04:57:52;0.5;;;0.5;;
39294;SDS011;52361;52.100;5.248;2023-11-25T05:07:30;7.0;;;0.7;;
39294;SDS011;52361;52.100;5.248;2023-11-25T05:09:06;0.4;;;0.4;;
39294;SDS011;52361;52.100;5.248;2023-11-25T05:13:55;0.5;;;0.5;;
39294;SDS011;52361;52.100;5.248;2023-11-25T05:20:19;3.3;;;1.0;;
39294;SDS011;52361;52.100;5.248;2023-11-25T05:25:07;0.7;;;0.7;;
39294;SDS011;52361;52.100;5.248;2023-11-25T05:26:43;0.6;;;0.6;;
39294;SDS011;52361;52.100;5.248;2023-11-25T05:28:19;0.8;;;0.8;;
39294;SDS011;52361;52.100;5.248;2023-11-25T05:36:20;1.0;;;0.9;;
39294;SDS011;52361;52.100;5.248;2023-11-25T05:42:44;0.6;;;0.6;;
39294;SDS011;52361;52.100;5.248;2023-11-25T05:45:56;5.5;;;0.6;;
39294;SDS011;52361;52.100;5.248;2023-11-25T05:53:57;0.8;;;0.6;;
39294;SDS011;52361;52.100;5.248;2023-11-25T05:55:33;0.6;;;0.6;;
39294;SDS011;52361;52.100;5.248;2023-11-25T05:58:45;0.4;;;0.4;;
39294;SDS011;52361;52.100;5.248;2023-11-25T06:00:21;0.9;;;0.6;;
39294;SDS011;52361;52.100;5.248;2023-11-25T06:01:57;0.6;;;0.6;;
39294;SDS011;52361;52.100;5.248;2023-11-25T06:03:33;0.5;;;0.5;;
39294;SDS011;52361;52.100;5.248;2023-11-25T06:09:58;0.5;;;0.5;;
39294;SDS011;52361;52.100;5.248;2023-11-25T06:13:10;0.5;;;0.5;;
39294;SDS011;52361;52.100;5.248;2023-11-25T06:14:46;0.5;;;0.5;;
39294;SDS011;52361;52.100;5.248;2023-11-25T06:19:35;1.3;;;1.2;;
39294;SDS011;52361;52.100;5.248;2023-11-25T06:27:36;1.3;;;1.2;;
39294;SDS011;52361;52.100;5.248;2023-11-25T06:30:48;1.5;;;1.4;;
39294;SDS011;52361;52.100;5.248;2023-11-25T06:34:01;0.6;;;0.5;;
39294;SDS011;52361;52.100;5.248;2023-11-25T06:37:14;6.6;;;0.8;;
39294;SDS011;52361;52.100;5.248;2023-11-25T06:48:26;1.0;;;1.0;;
39294;SDS011;52361;52.100;5.248;2023-11-25T06:50:02;1.11;;;0.6;;
39294;SDS011;52361;52.100;5.248;2023-11-25T06:54:52;1.9;;;0.6;;
39294;SDS011;52361;52.100;5.248;2023-11-25T07:04:30;1.0;;;0.8;;
39294;SDS011;52361;52.100;5.248;2023-11-25T07:07:42;1.7;;;0.7;;
39294;SDS011;52361;52.100;5.248;2023-11-25T07:10:55;0.5;;;0.5;;
39294;SDS011;52361;52.100;5.248;2023-11-25T07:17:19;1.7;;;0.5;;
39294;SDS011;52361;52.100;5.248;2023-11-25T07:23:44;0.6;;;0.6;;
39294;SDS011;52361;52.100;5.248;2023-11-25T07:25:20;0.4;;;0.4;;
39294;SDS011;52361;52.100;5.248;2023-11-25T07:28:33;1.9;;;0.7;;
39294;SDS011;52361;52.100;5.248;2023-11-25T07:34:58;1.11;;;0.6;;
39294;SDS011;52361;52.100;5.248;2023-11-25T07:42:59;0.7;;;0.6;;
39294;SDS011;52361;52.100;5.248;2023-11-25T07:44:36;1.6;;;0.7;;
39294;SDS011;52361;52.100;5.248;2023-11-25T07:49:24;1.3;;;1.3;;
39294;SDS011;52361;52.100;5.248;2023-11-25T07:51:00;1.5;;;0.7;;
39294;SDS011;52361;52.100;5.248;2023-11-25T07:55:51;0.4;;;0.4;;
39294;SDS011;52361;52.100;5.248;2023-11-25T07:57:28;1.4;;;0.6;;
39294;SDS011;52361;52.100;5.248;2023-11-25T07:59:04;2.7;;;0.6;;
39294;SDS011;52361;52.100;5.248;2023-11-25T08:00:40;0.4;;;0.4;;
39294;SDS011;52361;52.100;5.248;2023-11-25T08:07:05;0.6;;;0.6;;
39294;SDS011;52361;52.100;5.248;2023-11-25T08:11:56;0.4;;;0.4;;
39294;SDS011;52361;52.100;5.248;2023-11-25T08:13:32;0.7;;;0.7;;
39294;SDS011;52361;52.100;5.248;2023-11-25T08:18:21;1.5;;;1.0;;
39294;SDS011;52361;52.100;5.248;2023-11-25T08:31:11;0.6;;;0.6;;
39294;SDS011;52361;52.100;5.248;2023-11-25T08:44:01;2.31;;;1.2;;
39294;SDS011;52361;52.100;5.248;2023-11-25T08:47:13;1.5;;;1.0;;
39294;SDS011;52361;52.100;5.248;2023-11-25T08:48:49;1.4;;;0.8;;
39294;SDS011;52361;52.100;5.248;2023-11-25T08:52:02;0.8;;;0.8;;
39294;SDS011;52361;52.100;5.248;2023-11-25T08:55:14;3.9;;;2.0;;
39294;SDS011;52361;52.100;5.248;2023-11-25T09:01:42;0.7;;;0.7;;
39294;SDS011;52361;52.100;5.248;2023-11-25T09:04:54;1.7;;;1.6;;
39294;SDS011;52361;52.100;5.248;2023-11-25T09:06:30;1.11;;;1.0;;
39294;SDS011;52361;52.100;5.248;2023-11-25T09:08:06;1.7;;;1.0;;
39294;SDS011;52361;52.100;5.248;2023-11-25T09:14:31;2.5;;;0.9;;
39294;SDS011;52361;52.100;5.248;2023-11-25T09:19:20;5.2;;;0.9;;
39294;SDS011;52361;52.100;5.248;2023-11-25T09:22:32;1.5;;;1.2;;
39294;SDS011;52361;52.100;5.248;2023-11-25T09:25:44;3.2;;;1.11;;
39294;SDS011;52361;52.100;5.248;2023-11-25T09:32:09;0.8;;;0.8;;
39294;SDS011;52361;52.100;5.248;2023-11-25T09:36:57;1.6;;;1.5;;
39294;SDS011;52361;52.100;5.248;2023-11-25T09:53:04;2.8;;;1.2;;
39294;SDS011;52361;52.100;5.248;2023-11-25T09:56:30;6.8;;;1.7;;
39294;SDS011;52361;52.100;5.248;2023-11-25T09:58:06;1.3;;;1.2;;
39294;SDS011;52361;52.100;5.248;2023-11-25T10:04:33;6.3;;;1.5;;
39294;SDS011;52361;52.100;5.248;2023-11-25T10:06:14;5.9;;;0.8;;
39294;SDS011;52361;52.100;5.248;2023-11-25T10:11:03;2.31;;;1.2;;
39294;SDS011;52361;52.100;5.248;2023-11-25T10:15:51;3.0;;;0.8;;
39294;SDS011;52361;52.100;5.248;2023-11-25T10:20:53;5.0;;;0.7;;
39294;SDS011;52361;52.100;5.248;2023-11-25T10:24:06;2.6;;;0.7;;
39294;SDS011;52361;52.100;5.248;2023-11-25T10:25:43;3.9;;;1.2;;
39294;SDS011;52361;52.100;5.248;2023-11-25T10:27:20;6.0;;;1.7;;
39294;SDS011;52361;52.100;5.248;2023-11-25T10:40:14;0.9;;;0.8;;
39294;SDS011;52361;52.100;5.248;2023-11-25T10:48:25;1.11;;;0.7;;
39294;SDS011;52361;52.100;5.248;2023-11-25T10:53:19;8.81;;;0.8;;
39294;SDS011;52361;52.100;5.248;2023-11-25T10:54:57;1.11;;;0.8;;
39294;SDS011;52361;52.100;5.248;2023-11-25T10:56:34;0.7;;;0.7;;
39294;SDS011;52361;52.100;5.248;2023-11-25T11:03:14;1.2;;;0.7;;
39294;SDS011;52361;52.100;5.248;2023-11-25T11:04:56;4.2;;;1.3;;
39294;SDS011;52361;52.100;5.248;2023-11-25T11:11:48;1.7;;;0.9;;
39294;SDS011;52361;52.100;5.248;2023-11-25T11:13:29;4.5;;;1.11;;
39294;SDS011;52361;52.100;5.248;2023-11-25T11:16:54;1.4;;;0.7;;
39294;SDS011;52361;52.100;5.248;2023-11-25T11:22:02;2.31;;;1.0;;
39294;SDS011;52361;52.100;5.248;2023-11-25T11:28:48;3.4;;;1.11;;
39294;SDS011;52361;52.100;5.248;2023-11-25T11:30:38;2.21;;;1.2;;
39294;SDS011;52361;52.100;5.248;2023-11-25T11:32:32;4.3;;;1.4;;
39294;SDS011;52361;52.100;5.248;2023-11-25T11:37:22;18.8;;;1.6;;
39294;SDS011;52361;52.100;5.248;2023-11-25T11:39:18;3.3;;;1.6;;
39294;SDS011;52361;52.100;5.248;2023-11-25T11:51:04;6.0;;;1.2;;
39294;SDS011;52361;52.100;5.248;2023-11-25T11:54:24;0.9;;;0.7;;
39294;SDS011;52361;52.100;5.248;2023-11-25T11:56:01;4.91;;;1.2;;
39294;SDS011;52361;52.100;5.248;2023-11-25T12:01:35;1.0;;;0.8;;
39294;SDS011;52361;52.100;5.248;2023-11-25T12:06:26;1.2;;;1.0;;
39294;SDS011;52361;52.100;5.248;2023-11-25T12:12:51;0.7;;;0.7;;
39294;SDS011;52361;52.100;5.248;2023-11-25T12:14:28;1.0;;;0.7;;
39294;SDS011;52361;52.100;5.248;2023-11-25T12:16:04;1.8;;;0.8;;
39294;SDS011;52361;52.100;5.248;2023-11-25T12:19:17;2.7;;;1.3;;
39294;SDS011;52361;52.100;5.248;2023-11-25T12:27:23;1.6;;;1.11;;
39294;SDS011;52361;52.100;5.248;2023-11-25T12:29:02;0.9;;;0.8;;
39294;SDS011;52361;52.100;5.248;2023-11-25T12:30:39;2.7;;;1.11;;
39294;SDS011;52361;52.100;5.248;2023-11-25T12:33:53;2.9;;;1.2;;
39294;SDS011;52361;52.100;5.248;2023-11-25T12:35:30;1.3;;;0.6;;
39294;SDS011;52361;52.100;5.248;2023-11-25T12:40:19;2.7;;;0.8;;
39294;SDS011;52361;52.100;5.248;2023-11-25T12:50:12;1.2;;;1.11;;
39294;SDS011;52361;52.100;5.248;2023-11-25T12:51:48;0.9;;;0.9;;
39294;SDS011;52361;52.100;5.248;2023-11-25T12:55:01;9.21;;;1.11;;
39294;SDS011;52361;52.100;5.248;2023-11-25T12:56:37;1.8;;;0.7;;
39294;SDS011;52361;52.100;5.248;2023-11-25T12:58:14;4.41;;;1.0;;
39294;SDS011;52361;52.100;5.248;2023-11-25T13:03:03;2.8;;;1.0;;
39294;SDS011;52361;52.100;5.248;2023-11-25T13:09:31;4.0;;;0.6;;
39294;SDS011;52361;52.100;5.248;2023-11-25T13:12:43;2.21;;;0.8;;
39294;SDS011;52361;52.100;5.248;2023-11-25T13:15:56;0.6;;;0.6;;
39294;SDS011;52361;52.100;5.248;2023-11-25T13:19:09;1.11;;;1.11;;
39294;SDS011;52361;52.100;5.248;2023-11-25T13:20:45;1.0;;;0.7;;
39294;SDS011;52361;52.100;5.248;2023-11-25T13:25:33;0.7;;;0.7;;
39294;SDS011;52361;52.100;5.248;2023-11-25T13:30:21;1.4;;;1.11;;
39294;SDS011;52361;52.100;5.248;2023-11-25T13:31:57;3.2;;;1.7;;
39294;SDS011;52361;52.100;5.248;2023-11-25T13:36:46;0.8;;;0.7;;
39294;SDS011;52361;52.100;5.248;2023-11-25T13:43:11;1.3;;;0.8;;
39294;SDS011;52361;52.100;5.248;2023-11-25T13:44:48;0.7;;;0.7;;
39294;SDS011;52361;52.100;5.248;2023-11-25T13:46:24;0.8;;;0.8;;
39294;SDS011;52361;52.100;5.248;2023-11-25T13:52:49;0.8;;;0.8;;
39294;SDS011;52361;52.100;5.248;2023-11-25T13:59:14;1.11;;;0.9;;
39294;SDS011;52361;52.100;5.248;2023-11-25T14:00:50;4.5;;;1.3;;
39294;SDS011;52361;52.100;5.248;2023-11-25T14:05:38;0.8;;;0.8;;
39294;SDS011;52361;52.100;5.248;2023-11-25T14:12:03;2.8;;;1.5;;
39294;SDS011;52361;52.100;5.248;2023-11-25T14:13:39;1.2;;;1.0;;
39294;SDS011;52361;52.100;5.248;2023-11-25T14:15:15;1.11;;;0.6;;
39294;SDS011;52361;52.100;5.248;2023-11-25T14:18:28;4.8;;;0.9;;
39294;SDS011;52361;52.100;5.248;2023-11-25T14:21:41;1.3;;;0.8;;
39294;SDS011;52361;52.100;5.248;2023-11-25T14:24:53;0.8;;;0.8;;
39294;SDS011;52361;52.100;5.248;2023-11-25T14:32:54;1.2;;;0.9;;
39294;SDS011;52361;52.100;5.248;2023-11-25T14:34:30;0.8;;;0.8;;
39294;SDS011;52361;52.100;5.248;2023-11-25T14:36:06;2.9;;;1.4;;
39294;SDS011;52361;52.100;5.248;2023-11-25T14:40:55;1.0;;;0.8;;
39294;SDS011;52361;52.100;5.248;2023-11-25T14:42:31;3.1;;;1.6;;
39294;SDS011;52361;52.100;5.248;2023-11-25T14:48:57;4.8;;;0.9;;
39294;SDS011;52361;52.100;5.248;2023-11-25T14:55:21;1.3;;;1.0;;
39294;SDS011;52361;52.100;5.248;2023-11-25T15:00:10;3.0;;;1.0;;
39294;SDS011;52361;52.100;5.248;2023-11-25T15:14:38;1.6;;;0.9;;
39294;SDS011;52361;52.100;5.248;2023-11-25T15:27:27;2.31;;;1.5;;
39294;SDS011;52361;52.100;5.248;2023-11-25T15:29:03;1.9;;;1.4;;
39294;SDS011;52361;52.100;5.248;2023-11-25T15:40:16;1.5;;;1.4;;
39294;SDS011;52361;52.100;5.248;2023-11-25T15:48:18;3.8;;;1.3;;
39294;SDS011;52361;52.100;5.248;2023-11-25T15:57:55;1.11;;;1.0;;
39294;SDS011;52361;52.100;5.248;2023-11-25T16:02:43;8.71;;;4.0;;
39294;SDS011;52361;52.100;5.248;2023-11-25T16:04:19;7.3;;;3.4;;
39294;SDS011;52361;52.100;5.248;2023-11-25T16:12:21;2.7;;;1.4;;
39294;SDS011;52361;52.100;5.248;2023-11-25T16:15:33;3.6;;;1.9;;
39294;SDS011;52361;52.100;5.248;2023-11-25T16:29:59;4.8;;;1.9;;
39294;SDS011;52361;52.100;5.248;2023-11-25T16:37:59;1.6;;;1.3;;
39294;SDS011;52361;52.100;5.248;2023-11-25T16:39:35;17.0;;;2.5;;
39294;SDS011;52361;52.100;5.248;2023-11-25T16:49:13;2.5;;;1.4;;
39294;SDS011;52361;52.100;5.248;2023-11-25T16:55:39;5.5;;;1.7;;
39294;SDS011;52361;52.100;5.248;2023-11-25T16:57:15;2.31;;;1.6;;
39294;SDS011;52361;52.100;5.248;2023-11-25T16:58:52;5.7;;;1.5;;
39294;SDS011;52361;52.100;5.248;2023-11-25T17:03:41;4.61;;;1.3;;
39294;SDS011;52361;52.100;5.248;2023-11-25T17:11:43;3.7;;;1.4;;
39294;SDS011;52361;52.100;5.248;2023-11-25T17:19:44;7.2;;;1.6;;
39294;SDS011;52361;52.100;5.248;2023-11-25T17:21:20;1.11;;;1.11;;
39294;SDS011;52361;52.100;5.248;2023-11-25T17:37:21;1.4;;;1.11;;
39294;SDS011;52361;52.100;5.248;2023-11-25T17:40:33;1.3;;;1.2;;
39294;SDS011;52361;52.100;5.248;2023-11-25T17:45:21;1.6;;;1.4;;
39294;SDS011;52361;52.100;5.248;2023-11-25T17:46:57;3.9;;;2.6;;
39294;SDS011;52361;52.100;5.248;2023-11-25T17:53:22;7.3;;;3.3;;
39294;SDS011;52361;52.100;5.248;2023-11-25T17:54:58;4.1;;;2.4;;
39294;SDS011;52361;52.100;5.248;2023-11-25T17:58:10;6.7;;;2.21;;
39294;SDS011;52361;52.100;5.248;2023-11-25T17:59:46;2.0;;;1.7;;
39294;SDS011;52361;52.100;5.248;2023-11-25T18:01:22;2.6;;;2.31;;
39294;SDS011;52361;52.100;5.248;2023-11-25T18:04:34;3.5;;;2.8;;
39294;SDS011;52361;52.100;5.248;2023-11-25T18:06:11;7.1;;;2.31;;
39294;SDS011;52361;52.100;5.248;2023-11-25T18:10:59;3.1;;;2.0;;
39294;SDS011;52361;52.100;5.248;2023-11-25T18:12:35;4.8;;;2.4;;
39294;SDS011;52361;52.100;5.248;2023-11-25T18:14:11;6.9;;;4.1;;
39294;SDS011;52361;52.100;5.248;2023-11-25T18:15:47;4.7;;;2.31;;
39294;SDS011;52361;52.100;5.248;2023-11-25T18:18:59;1.9;;;1.7;;
39294;SDS011;52361;52.100;5.248;2023-11-25T18:20:35;2.9;;;1.2;;
39294;SDS011;52361;52.100;5.248;2023-11-25T18:22:12;4.41;;;2.4;;
39294;SDS011;52361;52.100;5.248;2023-11-25T18:25:24;3.5;;;1.8;;
39294;SDS011;52361;52.100;5.248;2023-11-25T18:27:00;1.4;;;1.3;;
39294;SDS011;52361;52.100;5.248;2023-11-25T18:28:36;6.1;;;1.7;;
39294;SDS011;52361;52.100;5.248;2023-11-25T18:31:48;6.1;;;1.7;;
39294;SDS011;52361;52.100;5.248;2023-11-25T18:33:24;1.6;;;1.2;;
39294;SDS011;52361;52.100;5.248;2023-11-25T18:35:00;2.0;;;1.8;;
39294;SDS011;52361;52.100;5.248;2023-11-25T18:36:36;2.1;;;1.9;;
39294;SDS011;52361;52.100;5.248;2023-11-25T18:39:49;3.1;;;1.9;;
39294;SDS011;52361;52.100;5.248;2023-11-25T18:43:01;3.1;;;2.0;;
39294;SDS011;52361;52.100;5.248;2023-11-25T18:46:13;3.0;;;2.7;;
39294;SDS011;52361;52.100;5.248;2023-11-25T18:47:49;1.7;;;1.4;;
39294;SDS011;52361;52.100;5.248;2023-11-25T18:52:39;3.7;;;1.7;;
39294;SDS011;52361;52.100;5.248;2023-11-25T18:54:15;2.4;;;2.1;;
39294;SDS011;52361;52.100;5.248;2023-11-25T18:55:51;2.9;;;1.7;;
39294;SDS011;52361;52.100;5.248;2023-11-25T18:59:03;2.8;;;1.5;;
39294;SDS011;52361;52.100;5.248;2023-11-25T19:00:40;3.2;;;1.6;;
39294;SDS011;52361;52.100;5.248;2023-11-25T19:02:16;5.6;;;2.1;;
39294;SDS011;52361;52.100;5.248;2023-11-25T19:03:52;2.9;;;1.2;;
39294;SDS011;52361;52.100;5.248;2023-11-25T19:07:04;4.1;;;2.4;;
39294;SDS011;52361;52.100;5.248;2023-11-25T19:08:40;3.1;;;1.7;;
39294;SDS011;52361;52.100;5.248;2023-11-25T19:10:17;2.0;;;1.5;;
39294;SDS011;52361;52.100;5.248;2023-11-25T19:13:29;4.61;;;1.9;;
39294;SDS011;52361;52.100;5.248;2023-11-25T19:15:05;3.4;;;1.9;;
39294;SDS011;52361;52.100;5.248;2023-11-25T19:16:42;5.0;;;2.21;;
39294;SDS011;52361;52.100;5.248;2023-11-25T19:19:54;5.3;;;2.6;;
39294;SDS011;52361;52.100;5.248;2023-11-25T19:21:30;4.2;;;2.5;;
39294;SDS011;52361;52.100;5.248;2023-11-25T19:23:06;10.3;;;3.3;;
39294;SDS011;52361;52.100;5.248;2023-11-25T19:26:19;4.8;;;2.8;;
39294;SDS011;52361;52.100;5.248;2023-11-25T19:27:55;6.4;;;2.21;;
39294;SDS011;52361;52.100;5.248;2023-11-25T19:31:07;5.9;;;2.31;;
39294;SDS011;52361;52.100;5.248;2023-11-25T19:34:19;5.11;;;2.9;;
39294;SDS011;52361;52.100;5.248;2023-11-25T19:35:55;8.0;;;3.0;;
39294;SDS011;52361;52.100;5.248;2023-11-25T19:37:31;4.61;;;2.7;;
39294;SDS011;52361;52.100;5.248;2023-11-25T19:40:43;3.4;;;2.4;;
39294;SDS011;52361;52.100;5.248;2023-11-25T19:42:19;3.5;;;2.1;;
39294;SDS011;52361;52.100;5.248;2023-11-25T19:43:56;3.1;;;2.31;;
39294;SDS011;52361;52.100;5.248;2023-11-25T19:47:08;4.41;;;3.0;;
39294;SDS011;52361;52.100;5.248;2023-11-25T19:48:45;3.3;;;3.0;;
39294;SDS011;52361;52.100;5.248;2023-11-25T19:50:21;22.4;;;3.3;;
39294;SDS011;52361;52.100;5.248;2023-11-25T19:51:57;6.8;;;3.0;;
39294;SDS011;52361;52.100;5.248;2023-11-25T19:55:09;7.1;;;4.5;;
39294;SDS011;52361;52.100;5.248;2023-11-25T19:56:45;5.4;;;3.2;;
39294;SDS011;52361;52.100;5.248;2023-11-25T19:58:22;3.9;;;3.6;;
39294;SDS011;52361;52.100;5.248;2023-11-25T20:01:34;4.1;;;3.6;;
39294;SDS011;52361;52.100;5.248;2023-11-25T20:03:10;6.6;;;4.5;;
39294;SDS011;52361;52.100;5.248;2023-11-25T20:04:46;7.1;;;3.7;;
39294;SDS011;52361;52.100;5.248;2023-11-25T20:07:58;8.31;;;3.8;;
39294;SDS011;52361;52.100;5.248;2023-11-25T20:09:34;3.9;;;3.3;;
39294;SDS011;52361;52.100;5.248;2023-11-25T20:11:11;7.7;;;3.9;;
39294;SDS011;52361;52.100;5.248;2023-11-25T20:14:23;7.8;;;3.9;;
39294;SDS011;52361;52.100;5.248;2023-11-25T20:15:59;8.1;;;4.2;;
39294;SDS011;52361;52.100;5.248;2023-11-25T20:17:35;7.5;;;5.3;;
39294;SDS011;52361;52.100;5.248;2023-11-25T20:19:11;6.3;;;4.2;;
39294;SDS011;52361;52.100;5.248;2023-11-25T20:22:23;9.0;;;4.3;;
39294;SDS011;52361;52.100;5.248;2023-11-25T20:23:59;5.7;;;3.7;;
39294;SDS011;52361;52.100;5.248;2023-11-25T20:25:35;8.71;;;5.8;;
39294;SDS011;52361;52.100;5.248;2023-11-25T20:28:48;11.3;;;6.5;;
39294;SDS011;52361;52.100;5.248;2023-11-25T20:30:24;10.0;;;4.7;;
39294;SDS011;52361;52.100;5.248;2023-11-25T20:32:00;9.4;;;5.0;;
39294;SDS011;52361;52.100;5.248;2023-11-25T20:35:12;13.2;;;5.8;;
39294;SDS011;52361;52.100;5.248;2023-11-25T20:36:48;7.6;;;4.8;;
39294;SDS011;52361;52.100;5.248;2023-11-25T20:38:24;10.8;;;5.11;;
39294;SDS011;52361;52.100;5.248;2023-11-25T20:40:02;7.6;;;5.9;;
39294;SDS011;52361;52.100;5.248;2023-11-25T20:43:15;10.7;;;4.91;;
39294;SDS011;52361;52.100;5.248;2023-11-25T20:44:52;9.6;;;5.3;;
39294;SDS011;52361;52.100;5.248;2023-11-25T20:46:28;7.0;;;4.7;;
39294;SDS011;52361;52.100;5.248;2023-11-25T20:49:41;7.7;;;5.0;;
39294;SDS011;52361;52.100;5.248;2023-11-25T20:51:18;7.7;;;4.61;;
39294;SDS011;52361;52.100;5.248;2023-11-25T20:52:56;8.81;;;5.3;;
39294;SDS011;52361;52.100;5.248;2023-11-25T20:56:09;12.3;;;6.0;;
39294;SDS011;52361;52.100;5.248;2023-11-25T20:57:45;24.4;;;6.8;;
39294;SDS011;52361;52.100;5.248;2023-11-25T20:59:21;8.81;;;4.7;;
39294;SDS011;52361;52.100;5.248;2023-11-25T21:00:59;8.81;;;6.7;;
39294;SDS011;52361;52.100;5.248;2023-11-25T21:04:14;10.1;;;5.9;;
39294;SDS011;52361;52.100;5.248;2023-11-25T21:05:50;10.9;;;7.2;;
39294;SDS011;52361;52.100;5.248;2023-11-25T21:07:26;12.8;;;7.3;;
39294;SDS011;52361;52.100;5.248;2023-11-25T21:10:41;17.0;;;7.7;;
39294;SDS011;52361;52.100;5.248;2023-11-25T21:12:18;9.1;;;5.6;;
39294;SDS011;52361;52.100;5.248;2023-11-25T21:13:55;15.8;;;7.3;;
39294;SDS011;52361;52.100;5.248;2023-11-25T21:17:08;8.2;;;5.4;;
39294;SDS011;52361;52.100;5.248;2023-11-25T21:18:44;8.2;;;5.4;;
39294;SDS011;52361;52.100;5.248;2023-11-25T21:20:20;9.6;;;5.0;;
39294;SDS011;52361;52.100;5.248;2023-11-25T21:21:57;10.0;;;6.7;;
39294;SDS011;52361;52.100;5.248;2023-11-25T21:25:09;13.1;;;7.2;;
39294;SDS011;52361;52.100;5.248;2023-11-25T21:26:45;15.0;;;6.2;;
39294;SDS011;52361;52.100;5.248;2023-11-25T21:31:33;12.2;;;5.9;;
39294;SDS011;52361;52.100;5.248;2023-11-25T21:33:10;9.5;;;5.7;;
39294;SDS011;52361;52.100;5.248;2023-11-25T21:34:46;14.6;;;7.0;;
39294;SDS011;52361;52.100;5.248;2023-11-25T21:37:59;9.81;;;6.3;;
39294;SDS011;52361;52.100;5.248;2023-11-25T21:39:35;10.0;;;6.2;;
39294;SDS011;52361;52.100;5.248;2023-11-25T21:41:11;6.5;;;5.8;;
39294;SDS011;52361;52.100;5.248;2023-11-25T21:42:47;9.6;;;6.4;;
39294;SDS011;52361;52.100;5.248;2023-11-25T21:45:59;13.2;;;7.6;;
39294;SDS011;52361;52.100;5.248;2023-11-25T21:47:35;11.7;;;7.4;;
39294;SDS011;52361;52.100;5.248;2023-11-25T21:49:11;12.8;;;6.8;;
39294;SDS011;52361;52.100;5.248;2023-11-25T21:52:23;7.5;;;6.1;;
39294;SDS011;52361;52.100;5.248;2023-11-25T21:53:59;8.9;;;5.8;;
39294;SDS011;52361;52.100;5.248;2023-11-25T21:55:36;8.4;;;6.2;;
39294;SDS011;52361;52.100;5.248;2023-11-25T21:58:48;16.0;;;7.4;;
39294;SDS011;52361;52.100;5.248;2023-11-25T22:00:24;10.7;;;7.9;;
39294;SDS011;52361;52.100;5.248;2023-11-25T22:05:13;10.3;;;5.7;;
39294;SDS011;52361;52.100;5.248;2023-11-25T22:06:49;7.9;;;5.8;;
39294;SDS011;52361;52.100;5.248;2023-11-25T22:08:25;13.1;;;7.6;;
39294;SDS011;52361;52.100;5.248;2023-11-25T22:10:02;13.5;;;7.4;;
39294;SDS011;52361;52.100;5.248;2023-11-25T22:13:15;6.0;;;4.91;;
39294;SDS011;52361;52.100;5.248;2023-11-25T22:14:51;6.9;;;5.6;;
39294;SDS011;52361;52.100;5.248;2023-11-25T22:16:27;9.1;;;4.8;;
39294;SDS011;52361;52.100;5.248;2023-11-25T22:19:39;13.1;;;6.5;;
39294;SDS011;52361;52.100;5.248;2023-11-25T22:21:18;10.9;;;6.9;;
39294;SDS011;52361;52.100;5.248;2023-11-25T22:22:54;12.8;;;7.2;;
39294;SDS011;52361;52.100;5.248;2023-11-25T22:26:07;12.1;;;5.9;;
39294;SDS011;52361;52.100;5.248;2023-11-25T22:27:43;10.0;;;6.1;;
39294;SDS011;52361;52.100;5.248;2023-11-25T22:29:19;6.5;;;5.8;;
39294;SDS011;52361;52.100;5.248;2023-11-25T22:30:55;9.6;;;6.8;;
39294;SDS011;52361;52.100;5.248;2023-11-25T22:34:07;12.3;;;6.8;;
39294;SDS011;52361;52.100;5.248;2023-11-25T22:35:43;11.9;;;6.9;;
39294;SDS011;52361;52.100;5.248;2023-11-25T22:37:19;13.5;;;6.7;;
39294;SDS011;52361;52.100;5.248;2023-11-25T22:40:31;9.6;;;5.9;;
39294;SDS011;52361;52.100;5.248;2023-11-25T22:42:07;13.2;;;6.9;;
39294;SDS011;52361;52.100;5.248;2023-11-25T22:43:44;7.3;;;5.5;;
39294;SDS011;52361;52.100;5.248;2023-11-25T22:46:56;9.4;;;5.7;;
39294;SDS011;52361;52.100;5.248;2023-11-25T22:48:32;8.1;;;5.5;;
39294;SDS011;52361;52.100;5.248;2023-11-25T22:50:08;8.5;;;5.8;;
39294;SDS011;52361;52.100;5.248;2023-11-25T22:53:20;9.1;;;5.5;;
39294;SDS011;52361;52.100;5.248;2023-11-25T22:54:56;11.3;;;6.8;;
39294;SDS011;52361;52.100;5.248;2023-11-25T22:56:32;14.5;;;5.2;;
39294;SDS011;52361;52.100;5.248;2023-11-25T22:58:09;11.5;;;5.7;;
39294;SDS011;52361;52.100;5.248;2023-11-25T23:01:22;8.81;;;5.11;;
39294;SDS011;52361;52.100;5.248;2023-11-25T23:02:58;6.9;;;4.61;;
39294;SDS011;52361;52.100;5.248;2023-11-25T23:04:34;8.9;;;5.0;;
39294;SDS011;52361;52.100;5.248;2023-11-25T23:07:46;7.3;;;5.3;;
39294;SDS011;52361;52.100;5.248;2023-11-25T23:09:22;9.0;;;5.4;;
39294;SDS011;52361;52.100;5.248;2023-11-25T23:10:58;7.3;;;5.3;;